createdAt,value
2022-11-04T00:01:48.918Z,13.50
2022-11-04T00:03:55.631Z,12.60
2022-11-04T00:06:05.460Z,13.70
2022-11-04T00:08:26.941Z,12.10
2022-11-04T00:10:51.696Z,14.50
2022-11-04T00:12:58.753Z,14.10
2022-11-04T00:15:25.337Z,8.30
2022-11-04T00:17:31.957Z,13.40
2022-11-04T00:19:56.991Z,14.10
2022-11-04T00:22:21.613Z,10.80
2022-11-04T00:24:46.425Z,11.90
2022-11-04T00:27:11.848Z,11.60
2022-11-04T00:29:18.570Z,10.40
2022-11-04T00:31:42.968Z,10.80
2022-11-04T00:33:50.904Z,8.80
2022-11-04T00:35:58.968Z,7.70
2022-11-04T00:38:05.795Z,7.90
2022-11-04T00:40:15.007Z,7.50
2022-11-04T00:42:21.695Z,6.80
2022-11-04T00:44:29.213Z,8.00
2022-11-04T00:46:36.396Z,6.50
2022-11-04T00:48:43.103Z,6.30
2022-11-04T00:50:50.037Z,7.90
2022-11-04T00:53:03.906Z,6.30
2022-11-04T00:55:10.499Z,6.60
2022-11-04T00:57:17.380Z,6.90
2022-11-04T00:59:23.715Z,6.80
2022-11-04T01:01:30.398Z,6.30
2022-11-04T01:03:37.555Z,8.30
2022-11-04T01:05:47.000Z,8.10
2022-11-04T01:07:53.254Z,6.10
2022-11-04T01:10:00.173Z,6.80
2022-11-04T01:12:06.643Z,8.00
2022-11-04T01:14:16.377Z,6.70
2022-11-04T01:16:23.675Z,7.00
2022-11-04T01:18:30.474Z,7.70
2022-11-04T01:20:36.849Z,8.60
2022-11-04T01:22:43.265Z,7.90
2022-11-04T01:24:50.491Z,8.70
2022-11-04T01:26:57.332Z,7.00
2022-11-04T01:29:04.217Z,8.20
2022-11-04T01:31:15.928Z,8.00
2022-11-04T01:33:22.565Z,7.70
2022-11-04T01:35:29.138Z,6.20
2022-11-04T01:37:35.611Z,7.20
2022-11-04T01:39:42.211Z,6.10
2022-11-04T01:41:48.780Z,6.80
2022-11-04T01:44:04.297Z,5.10
2022-11-04T01:46:13.671Z,6.00
2022-11-04T01:48:28.208Z,6.90
2022-11-04T01:50:38.427Z,6.80
2022-11-04T01:53:03.139Z,6.30
2022-11-04T01:55:19.933Z,7.30
2022-11-04T01:57:35.739Z,6.40
2022-11-04T01:59:43.162Z,6.60
2022-11-04T02:01:49.913Z,6.00
2022-11-04T02:04:23.312Z,5.60
2022-11-04T02:06:30.473Z,7.50
2022-11-04T02:08:37.306Z,7.10
2022-11-04T02:10:52.026Z,7.50
2022-11-04T02:13:02.623Z,7.10
2022-11-04T02:15:09.948Z,6.70
2022-11-04T02:17:22.409Z,8.20
2022-11-04T02:19:38.925Z,7.50
2022-11-04T02:22:15.769Z,8.50
2022-11-04T02:24:55.219Z,7.90
2022-11-04T02:27:39.025Z,8.80
2022-11-04T02:30:06.855Z,8.10
2022-11-04T02:32:22.448Z,8.70
2022-11-04T02:34:31.173Z,10.30
2022-11-04T02:36:43.281Z,9.80
2022-11-04T02:41:35.823Z,9.30
2022-11-04T02:43:57.917Z,9.70
2022-11-04T02:46:16.445Z,11.30
2022-11-04T02:48:27.845Z,9.80
2022-11-04T02:50:50.050Z,10.40
2022-11-04T02:52:59.480Z,10.10
2022-11-04T02:55:13.989Z,9.50
2022-11-04T02:57:27.781Z,13.20
2022-11-04T02:59:41.139Z,11.40
2022-11-04T03:01:50.616Z,11.10
2022-11-04T03:04:04.252Z,12.30
2022-11-04T03:06:14.479Z,10.70
2022-11-04T03:08:28.636Z,11.10
2022-11-04T03:10:44.234Z,10.90
2022-11-04T03:12:58.895Z,11.20
2022-11-04T03:15:11.063Z,8.60
2022-11-04T03:17:37.710Z,11.30
2022-11-04T03:19:58.119Z,9.60
2022-11-04T03:22:13.159Z,10.10
2022-11-04T03:24:19.329Z,9.70
2022-11-04T03:26:33.681Z,11.70
2022-11-04T03:29:12.484Z,11.20
2022-11-04T03:31:31.081Z,11.70
2022-11-04T03:33:42.018Z,9.50
2022-11-04T03:35:48.610Z,11.50
2022-11-04T03:37:55.258Z,9.90
2022-11-04T03:40:02.429Z,10.60
2022-11-04T03:42:22.138Z,10.30
2022-11-04T03:44:30.054Z,9.70
2022-11-04T03:46:36.980Z,9.10
2022-11-04T03:48:46.363Z,8.20
2022-11-04T03:50:53.065Z,9.30
2022-11-04T03:53:00.816Z,9.10
2022-11-04T03:55:09.574Z,9.50
2022-11-04T03:57:37.728Z,8.50
2022-11-04T04:00:11.658Z,7.10
2022-11-04T04:02:33.464Z,7.60
2022-11-04T04:04:49.400Z,5.70
2022-11-04T04:07:08.617Z,8.40
2022-11-04T04:09:30.008Z,7.80
2022-11-04T04:11:51.911Z,8.70
2022-11-04T04:14:14.765Z,8.30
2022-11-04T04:16:27.225Z,7.10
2022-11-04T04:18:55.649Z,7.60
2022-11-04T04:21:09.600Z,7.20
2022-11-04T04:23:41.299Z,7.30
2022-11-04T04:26:05.851Z,8.80
2022-11-04T04:28:16.101Z,6.90
2022-11-04T04:30:23.499Z,7.60
2022-11-04T04:32:35.290Z,6.90
2022-11-04T04:34:42.084Z,7.70
2022-11-04T04:36:55.964Z,7.20
2022-11-04T04:39:26.848Z,6.50
2022-11-04T04:41:53.540Z,6.10
2022-11-04T04:44:18.977Z,7.20
2022-11-04T04:46:26.409Z,6.50
2022-11-04T04:48:33.877Z,4.70
2022-11-04T04:50:45.857Z,5.80
2022-11-04T04:52:55.075Z,5.20
2022-11-04T04:55:01.592Z,5.80
2022-11-04T04:57:08.211Z,4.90
2022-11-04T04:59:14.810Z,5.80
2022-11-04T05:01:21.880Z,3.00
2022-11-04T05:03:28.812Z,4.80
2022-11-04T05:05:35.505Z,5.10
2022-11-04T05:07:42.407Z,4.30
2022-11-04T05:09:49.226Z,4.50
2022-11-04T05:11:55.980Z,4.30
2022-11-04T05:14:03.345Z,4.60
2022-11-04T05:16:12.120Z,4.30
2022-11-04T05:18:19.434Z,4.60
2022-11-04T05:20:28.242Z,3.70
2022-11-04T05:22:34.645Z,5.00
2022-11-04T05:24:41.231Z,3.70
2022-11-04T05:26:47.665Z,4.90
2022-11-04T05:28:54.111Z,4.00
2022-11-04T05:31:05.237Z,3.20
2022-11-04T05:33:12.809Z,4.00
2022-11-04T05:35:19.231Z,3.50
2022-11-04T05:37:26.203Z,4.50
2022-11-04T05:39:32.712Z,4.20
2022-11-04T05:41:39.097Z,4.70
2022-11-04T05:43:45.622Z,4.80
2022-11-04T05:45:52.193Z,4.30
2022-11-04T05:48:04.587Z,5.90
2022-11-04T05:50:11.615Z,4.50
2022-11-04T05:52:18.063Z,4.70
2022-11-04T05:54:24.715Z,5.20
2022-11-04T05:56:31.537Z,5.60
2022-11-04T05:58:38.270Z,5.20
2022-11-04T06:00:44.644Z,5.60
2022-11-04T06:02:51.353Z,5.90
2022-11-04T06:04:58.616Z,3.90
2022-11-04T06:07:05.483Z,5.70
2022-11-04T06:09:12.579Z,4.50
2022-11-04T06:11:19.871Z,5.70
2022-11-04T06:13:27.121Z,5.40
2022-11-04T06:15:33.986Z,6.40
2022-11-04T06:17:40.521Z,5.40
2022-11-04T06:19:47.656Z,5.00
2022-11-04T06:21:54.275Z,5.60
2022-11-04T06:24:01.357Z,5.70
2022-11-04T06:26:08.190Z,5.70
2022-11-04T06:28:14.448Z,6.00
2022-11-04T06:30:21.238Z,5.80
2022-11-04T06:32:28.081Z,6.40
2022-11-04T06:34:35.059Z,5.00
2022-11-04T06:36:42.204Z,5.60
2022-11-04T06:38:49.048Z,5.40
2022-11-04T06:40:55.687Z,6.50
2022-11-04T06:43:02.378Z,5.90
2022-11-04T06:45:09.536Z,5.00
2022-11-04T06:47:19.501Z,5.00
2022-11-04T06:49:29.034Z,6.30
2022-11-04T06:51:35.912Z,6.20
2022-11-04T06:53:42.809Z,6.10
2022-11-04T06:55:49.267Z,5.60
2022-11-04T06:57:55.653Z,5.70
2022-11-04T07:00:02.448Z,5.30
2022-11-04T07:02:11.739Z,5.40
2022-11-04T07:04:18.362Z,4.50
2022-11-04T07:06:25.463Z,4.80
2022-11-04T07:08:32.388Z,5.00
2022-11-04T07:10:39.087Z,5.70
2022-11-04T07:12:46.117Z,4.10
2022-11-04T07:14:57.531Z,3.80
2022-11-04T07:17:04.183Z,4.60
2022-11-04T07:19:10.979Z,4.50
2022-11-04T07:21:17.616Z,4.60
2022-11-04T07:23:24.166Z,4.50
2022-11-04T07:25:31.322Z,4.30
2022-11-04T07:27:38.088Z,4.20
2022-11-04T07:29:44.976Z,4.40
2022-11-04T07:31:51.804Z,5.00
2022-11-04T07:33:58.469Z,4.50
2022-11-04T07:36:10.636Z,3.50
2022-11-04T07:38:17.291Z,4.40
2022-11-04T07:40:24.503Z,3.40
2022-11-04T07:42:31.208Z,3.90
2022-11-04T07:44:45.156Z,4.10
2022-11-04T07:46:51.801Z,4.20
2022-11-04T07:48:59.883Z,4.00
2022-11-04T07:51:08.955Z,4.00
2022-11-04T07:53:15.921Z,3.60
2022-11-04T07:55:22.696Z,4.10
2022-11-04T07:57:30.467Z,4.00
2022-11-04T07:59:37.145Z,3.10
2022-11-04T08:01:44.099Z,4.00
2022-11-04T08:03:51.345Z,3.90
2022-11-04T08:06:00.290Z,3.40
2022-11-04T08:08:07.093Z,3.80
2022-11-04T08:10:13.630Z,3.30
2022-11-04T08:12:23.043Z,2.90
2022-11-04T08:14:29.739Z,3.50
2022-11-04T08:16:36.464Z,2.70
2022-11-04T08:18:44.087Z,3.10
2022-11-04T08:20:52.321Z,2.80
2022-11-04T08:22:58.917Z,2.40
2022-11-04T08:25:06.128Z,2.70
2022-11-04T08:27:12.522Z,3.40
2022-11-04T08:29:19.151Z,3.20
2022-11-04T08:31:29.648Z,2.80
2022-11-04T08:33:37.502Z,2.40
2022-11-04T08:35:44.125Z,3.30
2022-11-04T08:37:50.596Z,2.80
2022-11-04T08:39:57.137Z,2.80
2022-11-04T08:42:03.510Z,2.50
2022-11-04T08:44:12.748Z,2.40
2022-11-04T08:46:20.012Z,3.20
2022-11-04T08:48:26.445Z,2.70
2022-11-04T08:50:32.933Z,2.90
2022-11-04T08:52:39.374Z,2.40
2022-11-04T08:54:46.290Z,2.70
2022-11-04T08:56:53.230Z,2.60
2022-11-04T08:59:01.703Z,2.50
2022-11-04T09:01:09.185Z,3.00
2022-11-04T09:03:15.495Z,2.00
2022-11-04T09:05:22.348Z,2.30
2022-11-04T09:07:28.934Z,2.40
2022-11-04T09:09:35.704Z,2.30
2022-11-04T09:11:43.296Z,2.10
2022-11-04T09:13:49.315Z,2.00
2022-11-04T09:15:56.427Z,1.80
2022-11-04T09:18:06.131Z,2.00
2022-11-04T09:20:13.296Z,1.70
2022-11-04T09:22:19.656Z,1.90
2022-11-04T09:24:25.864Z,1.80
2022-11-04T09:26:32.836Z,2.00
2022-11-04T09:28:39.952Z,2.00
2022-11-04T09:30:46.667Z,2.20
2022-11-04T09:32:53.541Z,1.70
2022-11-04T09:35:00.258Z,2.10
2022-11-04T09:37:06.973Z,1.40
2022-11-04T09:39:13.598Z,1.80
2022-11-04T09:41:38.018Z,1.80
2022-11-04T09:44:13.337Z,1.60
2022-11-04T09:46:21.577Z,1.70
2022-11-04T09:48:27.685Z,1.70
2022-11-04T09:50:48.821Z,1.50
2022-11-04T09:53:09.781Z,1.40
2022-11-04T09:55:33.407Z,1.40
2022-11-04T09:57:40.003Z,1.60
2022-11-04T09:59:47.675Z,1.80
2022-11-04T10:02:08.320Z,1.50
2022-11-04T10:04:36.282Z,1.20
2022-11-04T10:07:01.034Z,1.30
2022-11-04T10:09:15.863Z,1.50
2022-11-04T10:11:31.233Z,1.20
2022-11-04T10:13:53.490Z,1.20
2022-11-04T10:19:04.153Z,1.30
2022-11-04T10:21:22.643Z,1.60
2022-11-04T10:23:36.727Z,1.20
2022-11-04T10:26:03.772Z,1.30
2022-11-04T10:28:16.332Z,1.30
2022-11-04T10:30:25.303Z,1.60
2022-11-04T10:32:41.266Z,1.30
2022-11-04T10:34:58.701Z,1.20
2022-11-04T10:37:05.901Z,1.10
2022-11-04T10:39:28.609Z,1.30
2022-11-04T10:41:38.757Z,1.20
2022-11-04T10:43:45.334Z,1.20
2022-11-04T10:45:58.401Z,1.30
2022-11-04T10:48:17.529Z,0.90
2022-11-04T10:50:53.197Z,1.40
2022-11-04T10:53:20.208Z,1.10
2022-11-04T10:55:50.628Z,1.10
2022-11-04T10:58:00.867Z,1.00
2022-11-04T11:00:07.927Z,0.90
2022-11-04T11:02:14.990Z,1.10
2022-11-04T11:04:30.753Z,0.90
2022-11-04T11:06:38.190Z,1.20
2022-11-04T11:08:45.645Z,1.00
2022-11-04T11:10:55.068Z,0.80
2022-11-04T11:13:08.494Z,0.90
2022-11-04T11:15:33.898Z,1.20
2022-11-04T11:17:40.791Z,0.90
2022-11-04T11:19:56.128Z,0.90
2022-11-04T11:22:03.301Z,1.10
2022-11-04T11:24:25.236Z,0.90
2022-11-04T11:26:33.485Z,0.90
2022-11-04T11:28:41.978Z,0.90
2022-11-04T11:30:48.202Z,1.00
2022-11-04T11:33:17.684Z,1.00
2022-11-04T11:35:34.830Z,0.90
2022-11-04T11:37:41.742Z,0.90
2022-11-04T11:39:48.391Z,1.00
2022-11-04T11:42:07.556Z,1.20
2022-11-04T11:44:38.460Z,0.60
2022-11-04T11:46:55.673Z,0.80
2022-11-04T11:49:05.770Z,0.70
2022-11-04T11:51:21.891Z,1.00
2022-11-04T11:53:36.684Z,1.20
2022-11-04T11:55:49.800Z,1.10
2022-11-04T12:00:43.056Z,0.90
2022-11-04T12:02:56.089Z,1.00
2022-11-04T12:11:14.259Z,1.00
2022-11-04T12:13:29.230Z,0.90
2022-11-04T12:15:55.675Z,0.90
2022-11-04T12:18:07.817Z,0.90
2022-11-04T12:22:32.590Z,1.10
2022-11-04T12:24:57.927Z,0.90
2022-11-04T12:27:41.925Z,0.70
2022-11-04T12:30:07.538Z,1.10
2022-11-04T12:32:28.082Z,0.70
2022-11-04T12:34:52.757Z,0.70
2022-11-04T12:37:08.315Z,1.40
2022-11-04T12:39:36.704Z,0.70
2022-11-04T12:42:19.539Z,0.60
2022-11-04T12:44:34.545Z,0.80
2022-11-04T12:47:08.291Z,1.00
2022-11-04T12:49:33.906Z,1.00
2022-11-04T12:52:13.891Z,0.60
2022-11-04T12:54:28.735Z,1.10
2022-11-04T12:56:44.296Z,0.70
2022-11-04T12:59:23.058Z,0.60
2022-11-04T13:01:43.132Z,0.70
2022-11-04T13:03:52.487Z,0.80
2022-11-04T13:06:31.492Z,0.70
2022-11-04T13:08:46.717Z,0.90
2022-11-04T13:11:24.413Z,0.70
2022-11-04T13:13:40.239Z,0.70
2022-11-04T13:15:51.124Z,0.70
2022-11-04T13:18:09.412Z,0.60
2022-11-04T13:20:32.474Z,0.90
2022-11-04T13:22:39.898Z,0.80
2022-11-04T13:24:58.532Z,0.80
2022-11-04T13:27:27.942Z,0.70
2022-11-04T13:29:35.755Z,0.70
2022-11-04T13:31:41.763Z,0.80
2022-11-04T13:34:29.634Z,0.80
2022-11-04T13:36:38.653Z,1.10
2022-11-04T13:38:55.801Z,0.60
2022-11-04T13:41:21.485Z,0.60
2022-11-04T13:43:39.226Z,0.60
2022-11-04T13:45:55.177Z,0.60
2022-11-04T13:48:01.676Z,0.50
2022-11-04T13:50:26.533Z,0.80
2022-11-04T13:52:37.311Z,0.70
2022-11-04T13:54:56.477Z,0.60
2022-11-04T13:57:30.383Z,0.70
2022-11-04T13:59:38.132Z,0.60
2022-11-04T14:01:44.841Z,0.60
2022-11-04T14:04:16.542Z,0.60
2022-11-04T14:06:52.718Z,0.50
2022-11-04T14:09:26.995Z,0.60
2022-11-04T14:11:38.742Z,0.60
2022-11-04T14:16:18.918Z,0.60
2022-11-04T14:18:34.287Z,0.60
2022-11-04T14:21:05.795Z,0.50
2022-11-04T14:23:25.542Z,0.50
2022-11-04T14:25:39.795Z,0.50
2022-11-04T14:27:48.890Z,0.40
2022-11-04T14:29:56.694Z,0.40
2022-11-04T14:32:13.429Z,0.40
2022-11-04T14:34:40.857Z,0.70
2022-11-04T14:36:47.298Z,0.60
2022-11-04T14:39:28.656Z,0.50
2022-11-04T14:41:57.163Z,0.40
2022-11-04T14:44:10.082Z,0.40
2022-11-04T14:46:30.728Z,0.30
2022-11-04T14:48:37.473Z,0.50
2022-11-04T14:50:47.665Z,0.40
2022-11-04T14:53:03.400Z,0.80
2022-11-04T14:55:13.085Z,0.40
2022-11-04T14:57:23.285Z,0.40
2022-11-04T14:59:30.006Z,0.50
2022-11-04T15:01:40.413Z,0.60
2022-11-04T15:06:34.840Z,0.50
2022-11-04T15:08:48.064Z,0.50
2022-11-04T15:11:11.254Z,0.40
2022-11-04T15:13:23.358Z,0.60
2022-11-04T15:15:39.385Z,0.60
2022-11-04T15:17:45.507Z,0.70
2022-11-04T15:19:54.643Z,0.60
2022-11-04T15:22:03.394Z,0.40
2022-11-04T15:24:19.794Z,0.40
2022-11-04T15:26:32.675Z,0.50
2022-11-04T15:28:48.014Z,0.60
2022-11-04T15:31:19.041Z,0.50
2022-11-04T15:33:28.457Z,0.60
2022-11-04T15:35:36.050Z,0.50
2022-11-04T15:37:43.943Z,0.60
2022-11-04T15:39:53.918Z,0.50
2022-11-04T15:42:24.257Z,0.50
2022-11-04T15:44:36.525Z,0.50
2022-11-04T15:46:48.362Z,0.40
2022-11-04T15:49:08.945Z,0.50
2022-11-04T15:51:23.794Z,0.60
2022-11-04T15:53:29.989Z,0.40
2022-11-04T15:55:39.190Z,0.50
2022-11-04T15:57:46.476Z,0.40
2022-11-04T15:59:56.861Z,0.40
2022-11-04T16:02:06.814Z,0.50
2022-11-04T16:04:13.816Z,0.50
2022-11-04T16:06:38.444Z,0.60
2022-11-04T16:08:45.086Z,0.50
2022-11-04T16:10:52.374Z,0.40
2022-11-04T16:13:22.350Z,0.50
2022-11-04T16:15:42.718Z,0.40
2022-11-04T16:17:49.178Z,0.40
2022-11-04T16:20:10.399Z,0.60
2022-11-04T16:22:22.863Z,0.40
2022-11-04T16:24:33.190Z,0.50
2022-11-04T16:26:43.241Z,0.50
2022-11-04T16:28:56.440Z,0.40
2022-11-04T16:31:10.678Z,0.50
2022-11-04T16:33:19.635Z,0.60
2022-11-04T16:35:28.878Z,0.30
2022-11-04T16:37:35.378Z,0.60
2022-11-04T16:39:44.683Z,0.40
2022-11-04T16:41:51.180Z,0.30
2022-11-04T16:43:58.250Z,0.60
2022-11-04T16:46:04.965Z,0.40
2022-11-04T16:48:15.688Z,0.50
2022-11-04T16:50:22.728Z,0.50
2022-11-04T16:52:29.623Z,0.50
2022-11-04T16:54:35.703Z,0.50
2022-11-04T16:56:42.341Z,0.70
2022-11-04T16:58:49.093Z,0.40
2022-11-04T17:00:57.055Z,0.50
2022-11-04T17:03:24.338Z,0.40
2022-11-04T17:05:31.075Z,0.50
2022-11-04T17:07:52.845Z,0.40
2022-11-04T17:10:01.989Z,0.30
2022-11-04T17:12:08.686Z,0.50
2022-11-04T17:14:15.210Z,0.60
2022-11-04T17:16:21.647Z,0.40
2022-11-04T17:18:31.754Z,0.50
2022-11-04T17:20:38.285Z,0.40
2022-11-04T17:22:48.290Z,0.40
2022-11-04T17:24:54.882Z,0.30
2022-11-04T17:27:01.380Z,0.50
2022-11-04T17:29:09.843Z,0.40
2022-11-04T17:31:21.937Z,0.50
2022-11-04T17:33:28.643Z,0.50
2022-11-04T17:35:38.569Z,0.50
2022-11-04T17:37:45.239Z,0.30
2022-11-04T17:39:51.971Z,0.50
2022-11-04T17:42:17.035Z,0.60
2022-11-04T17:44:23.436Z,0.70
2022-11-04T17:46:39.023Z,0.70
2022-11-04T17:48:45.814Z,0.60
2022-11-04T17:50:52.071Z,0.80
2022-11-04T17:52:58.651Z,0.50
2022-11-04T17:55:06.305Z,0.80
2022-11-04T17:57:12.873Z,0.60
2022-11-04T17:59:19.532Z,0.70
2022-11-04T18:01:26.016Z,0.40
2022-11-04T18:03:40.946Z,0.70
2022-11-04T18:05:47.968Z,0.70
2022-11-04T18:07:56.125Z,0.50
2022-11-04T18:10:02.525Z,0.40
2022-11-04T18:12:27.836Z,0.40
2022-11-04T18:14:34.727Z,0.50
2022-11-04T18:16:41.331Z,0.40
2022-11-04T18:18:47.937Z,0.50
2022-11-04T18:21:07.934Z,0.50
2022-11-04T18:23:14.932Z,0.70
2022-11-04T18:25:21.554Z,0.60
2022-11-04T18:27:28.000Z,0.50
2022-11-04T18:29:34.395Z,0.60
2022-11-04T18:31:46.140Z,0.50
2022-11-04T18:33:55.485Z,0.60
2022-11-04T18:36:06.817Z,0.60
2022-11-04T18:38:13.155Z,0.50
2022-11-04T18:40:20.234Z,0.80
2022-11-04T18:42:26.688Z,0.50
2022-11-04T18:44:33.473Z,0.50
2022-11-04T18:46:40.178Z,0.70
2022-11-04T18:48:51.224Z,0.60
2022-11-04T18:51:01.574Z,0.50
2022-11-04T18:53:08.376Z,0.50
2022-11-04T18:55:15.088Z,0.50
2022-11-04T18:57:21.502Z,0.70
2022-11-04T18:59:27.664Z,0.60
2022-11-04T19:01:35.547Z,0.70
2022-11-04T19:03:42.137Z,0.80
2022-11-04T19:05:48.481Z,0.60
2022-11-04T19:07:54.940Z,0.60
2022-11-04T19:10:01.383Z,0.70
2022-11-04T19:12:26.687Z,0.60
2022-11-04T19:14:33.104Z,0.70
2022-11-04T19:16:40.347Z,0.60
2022-11-04T19:18:50.386Z,0.80
2022-11-04T19:20:56.869Z,0.80
2022-11-04T19:23:03.828Z,0.70
2022-11-04T19:25:11.224Z,0.70
2022-11-04T19:27:19.716Z,0.50
2022-11-04T19:29:27.120Z,1.00
2022-11-04T19:31:34.508Z,0.80
2022-11-04T19:33:41.251Z,0.90
2022-11-04T19:35:47.779Z,0.80
2022-11-04T19:37:53.901Z,1.00
2022-11-04T19:40:00.734Z,0.90
2022-11-04T19:42:26.270Z,0.80
2022-11-04T19:44:33.778Z,1.30
2022-11-04T19:46:40.373Z,1.00
2022-11-04T19:48:46.522Z,1.00
2022-11-04T19:50:52.714Z,0.90
2022-11-04T19:52:58.947Z,1.10
2022-11-04T19:55:05.534Z,0.90
2022-11-04T19:57:11.928Z,0.70
2022-11-04T19:59:20.071Z,0.90
2022-11-04T20:01:26.458Z,1.10
2022-11-04T20:03:32.769Z,0.90
2022-11-04T20:05:40.668Z,0.70
2022-11-04T20:07:46.796Z,0.80
2022-11-04T20:09:54.521Z,0.90
2022-11-04T20:12:19.547Z,1.00
2022-11-04T20:14:27.565Z,0.60
2022-11-04T20:16:35.109Z,0.60
2022-11-04T20:18:41.386Z,0.80
2022-11-04T20:20:47.861Z,0.90
2022-11-04T20:22:54.474Z,1.00
2022-11-04T20:25:00.937Z,0.80
2022-11-04T20:27:07.373Z,0.80
2022-11-04T20:29:13.960Z,0.80
2022-11-04T20:31:23.621Z,0.90
2022-11-04T20:33:30.053Z,0.60
2022-11-04T20:35:36.700Z,0.70
2022-11-04T20:37:43.313Z,0.80
2022-11-04T20:39:49.855Z,0.90
2022-11-04T20:41:56.408Z,0.80
2022-11-04T20:44:03.924Z,0.90
2022-11-04T20:46:22.833Z,0.70
2022-11-04T20:48:29.431Z,0.80
2022-11-04T20:50:37.617Z,0.60
2022-11-04T20:52:44.334Z,0.70
2022-11-04T20:54:50.576Z,1.00
2022-11-04T20:56:56.992Z,0.90
2022-11-04T20:59:03.598Z,0.90
2022-11-04T21:01:27.504Z,0.90
2022-11-04T21:03:34.460Z,0.70
2022-11-04T21:05:41.045Z,0.70
2022-11-04T21:07:47.649Z,0.90
2022-11-04T21:09:54.368Z,0.90
2022-11-04T21:12:01.008Z,0.70
2022-11-04T21:14:09.364Z,0.90
2022-11-04T21:16:20.960Z,0.80
2022-11-04T21:18:27.683Z,0.90
2022-11-04T21:20:40.018Z,0.90
2022-11-04T21:22:46.644Z,0.60
2022-11-04T21:24:53.011Z,0.90
2022-11-04T21:26:59.866Z,0.80
2022-11-04T21:29:10.080Z,1.00
2022-11-04T21:31:16.779Z,0.90
2022-11-04T21:33:22.974Z,1.20
2022-11-04T21:35:29.486Z,0.90
2022-11-04T21:37:37.142Z,1.10
2022-11-04T21:39:43.789Z,0.90
2022-11-04T21:41:50.317Z,1.00
2022-11-04T21:44:02.452Z,1.00
2022-11-04T21:46:16.317Z,1.30
2022-11-04T21:48:22.763Z,1.10
2022-11-04T21:50:28.883Z,1.50
2022-11-04T21:52:35.698Z,1.10
2022-11-04T21:54:41.967Z,0.90
2022-11-04T21:56:48.418Z,1.10
2022-11-04T21:58:55.709Z,1.40
2022-11-04T22:01:02.642Z,1.30
2022-11-04T22:03:12.949Z,1.00
2022-11-04T22:05:19.777Z,1.10
2022-11-04T22:07:52.179Z,1.20
2022-11-04T22:12:04.365Z,1.00
2022-11-04T22:14:13.312Z,1.10
2022-11-04T22:16:22.525Z,1.40
2022-11-04T22:18:31.806Z,1.20
2022-11-04T22:20:39.040Z,1.10
2022-11-04T22:22:45.464Z,2.00
2022-11-04T22:25:04.253Z,1.00
2022-11-04T22:27:10.815Z,0.80
2022-11-04T22:29:17.428Z,1.30
2022-11-04T22:31:26.202Z,1.40
2022-11-04T22:33:32.303Z,1.50
2022-11-04T22:35:38.549Z,1.30
2022-11-04T22:37:44.697Z,1.50
2022-11-04T22:39:50.887Z,1.10
2022-11-04T22:41:57.307Z,1.00
2022-11-04T22:44:04.291Z,1.00
2022-11-04T22:46:16.923Z,1.50
2022-11-04T22:48:24.422Z,1.50
2022-11-04T22:50:30.767Z,1.20
2022-11-04T22:52:37.082Z,0.70
2022-11-04T22:54:43.380Z,1.20
2022-11-04T22:56:49.829Z,1.10
2022-11-04T22:58:56.193Z,0.80
2022-11-04T23:01:05.971Z,1.00
2022-11-04T23:03:12.628Z,0.90
2022-11-04T23:05:19.467Z,0.80
2022-11-04T23:07:25.890Z,0.90
2022-11-04T23:09:34.182Z,1.10
2022-11-04T23:11:58.820Z,1.10
2022-11-04T23:14:23.870Z,1.00
2022-11-04T23:16:48.705Z,1.00
2022-11-04T23:18:55.843Z,1.20
2022-11-04T23:21:20.713Z,1.00
2022-11-04T23:23:45.068Z,1.00
2022-11-04T23:25:51.466Z,1.20
2022-11-04T23:28:16.424Z,1.30
2022-11-04T23:30:23.560Z,1.10
2022-11-04T23:32:30.103Z,1.00
2022-11-04T23:34:54.398Z,1.30
2022-11-04T23:37:15.919Z,1.00
2022-11-04T23:39:22.946Z,1.10
2022-11-04T23:41:47.776Z,1.30
2022-11-04T23:43:54.665Z,1.10
2022-11-04T23:46:19.665Z,1.10
2022-11-04T23:48:44.780Z,1.00
2022-11-04T23:51:19.130Z,1.30
2022-11-04T23:53:43.969Z,0.80
2022-11-04T23:56:09.903Z,1.00
2022-11-04T23:58:34.361Z,1.10
